createdAt,value
2023-05-03T00:01:29.638Z,98627.28
2023-05-03T00:04:36.366Z,98622.94
2023-05-03T00:07:43.452Z,98621.06
2023-05-03T00:10:50.229Z,98617.91
2023-05-03T00:13:58.785Z,98617.22
2023-05-03T00:17:08.934Z,98621.06
2023-05-03T00:20:15.638Z,98621.06
2023-05-03T00:23:22.409Z,98613.72
2023-05-03T00:26:28.832Z,98614.34
2023-05-03T00:29:39.051Z,98606.03
2023-05-03T00:32:44.983Z,98616.53
2023-05-03T00:35:52.640Z,98601.13
2023-05-03T00:38:58.597Z,98613.50
2023-05-03T00:42:07.444Z,98613.81
2023-05-03T00:45:16.564Z,98610.31
2023-05-03T00:48:23.598Z,98607.41
2023-05-03T00:51:31.510Z,98610.78
2023-05-03T00:54:42.695Z,98606.50
2023-05-03T00:57:48.621Z,98597.69
2023-05-03T01:01:02.875Z,98610.59
2023-05-03T01:04:10.736Z,98615.38
2023-05-03T01:07:40.789Z,98620.53
2023-05-03T01:10:58.590Z,98616.84
2023-05-03T01:14:31.764Z,98619.50
2023-05-03T01:17:50.208Z,98613.84
2023-05-03T01:20:58.391Z,98619.75
2023-05-03T01:24:14.554Z,98615.38
2023-05-03T01:27:24.823Z,98612.09
2023-05-03T01:30:36.128Z,98623.69
2023-05-03T01:33:52.906Z,98621.03
2023-05-03T01:37:06.237Z,98624.06
2023-05-03T01:40:19.791Z,98619.69
2023-05-03T01:43:32.643Z,98621.91
2023-05-03T01:46:44.613Z,98626.00
2023-05-03T01:49:51.540Z,98620.81
2023-05-03T01:52:57.424Z,98620.94
2023-05-03T01:56:04.231Z,98626.56
2023-05-03T01:59:14.462Z,98628.56
2023-05-03T02:02:21.472Z,98629.44
2023-05-03T02:05:27.319Z,98631.13
2023-05-03T02:08:34.187Z,98631.91
2023-05-03T02:11:40.222Z,98636.78
2023-05-03T02:14:49.485Z,98629.94
2023-05-03T02:17:56.118Z,98624.38
2023-05-03T02:21:02.999Z,98627.91
2023-05-03T02:24:09.977Z,98629.81
2023-05-03T02:27:16.672Z,98629.59
2023-05-03T02:30:25.607Z,98631.25
2023-05-03T02:33:32.497Z,98633.19
2023-05-03T02:36:39.652Z,98635.50
2023-05-03T02:39:47.002Z,98628.00
2023-05-03T02:42:55.533Z,98635.16
2023-05-03T02:46:09.830Z,98630.69
2023-05-03T02:49:15.681Z,98641.09
2023-05-03T02:52:23.887Z,98644.31
2023-05-03T02:55:30.100Z,98642.28
2023-05-03T02:58:36.945Z,98641.66
2023-05-03T03:01:46.639Z,98649.50
2023-05-03T03:05:02.625Z,98659.50
2023-05-03T03:08:09.206Z,98654.41
2023-05-03T03:11:17.192Z,98654.75
2023-05-03T03:14:23.188Z,98649.69
2023-05-03T03:17:32.862Z,98655.22
2023-05-03T03:20:43.148Z,98654.06
2023-05-03T03:24:00.149Z,98649.41
2023-05-03T03:27:07.090Z,98657.59
2023-05-03T03:30:21.762Z,98647.75
2023-05-03T03:33:44.683Z,98652.09
2023-05-03T03:37:08.108Z,98659.47
2023-05-03T03:40:17.108Z,98657.09
2023-05-03T03:43:25.114Z,98662.91
2023-05-03T03:46:31.582Z,98658.38
2023-05-03T03:49:44.637Z,98658.22
2023-05-03T03:52:50.664Z,98662.75
2023-05-03T03:55:57.475Z,98658.41
2023-05-03T03:59:04.511Z,98652.78
2023-05-03T04:02:11.460Z,98657.47
2023-05-03T04:05:20.188Z,98667.00
2023-05-03T04:08:27.920Z,98678.34
2023-05-03T04:11:36.102Z,98673.69
2023-05-03T04:14:44.280Z,98677.53
2023-05-03T04:17:50.306Z,98684.03
2023-05-03T04:20:59.858Z,98684.22
2023-05-03T04:24:07.606Z,98695.22
2023-05-03T04:27:18.497Z,98699.84
2023-05-03T04:30:25.069Z,98700.88
2023-05-03T04:33:35.304Z,98703.84
2023-05-03T04:36:46.689Z,98705.53
2023-05-03T04:39:54.595Z,98702.19
2023-05-03T04:43:00.908Z,98702.69
2023-05-03T04:46:10.331Z,98708.88
2023-05-03T04:49:18.107Z,98713.69
2023-05-03T04:52:30.003Z,98713.19
2023-05-03T04:55:36.113Z,98717.66
2023-05-03T04:58:44.844Z,98713.84
2023-05-03T05:01:53.543Z,98724.81
2023-05-03T05:05:00.703Z,98726.47
2023-05-03T05:08:21.724Z,98735.47
2023-05-03T05:11:46.405Z,98730.81
2023-05-03T05:14:52.459Z,98738.16
2023-05-03T05:18:00.119Z,98742.97
2023-05-03T05:21:25.172Z,98742.63
2023-05-03T05:24:35.187Z,98743.78
2023-05-03T05:27:41.824Z,98751.78
2023-05-03T05:30:48.909Z,98759.75
2023-05-03T05:33:55.104Z,98761.13
2023-05-03T05:37:05.967Z,98767.59
2023-05-03T05:40:16.965Z,98770.75
2023-05-03T05:43:29.574Z,98772.75
2023-05-03T05:46:44.086Z,98778.94
2023-05-03T05:49:51.571Z,98773.25
2023-05-03T05:52:57.643Z,98777.44
2023-05-03T05:56:11.629Z,98775.25
2023-05-03T05:59:17.697Z,98782.13
2023-05-03T06:02:25.390Z,98778.97
2023-05-03T06:05:31.690Z,98788.59
2023-05-03T06:08:39.368Z,98784.91
2023-05-03T06:11:47.998Z,98790.41
2023-05-03T06:18:09.285Z,98802.59
2023-05-03T06:21:16.131Z,98803.75
2023-05-03T06:24:22.185Z,98805.09
2023-05-03T06:27:34.836Z,98806.63
2023-05-03T06:30:45.096Z,98813.59
2023-05-03T06:33:53.424Z,98812.09
2023-05-03T06:36:59.946Z,98816.75
2023-05-03T06:40:08.002Z,98815.91
2023-05-03T06:43:18.436Z,98819.13
2023-05-03T06:46:31.712Z,98817.94
2023-05-03T06:49:37.872Z,98824.59
2023-05-03T06:52:46.550Z,98818.38
2023-05-03T06:55:52.518Z,98827.53
2023-05-03T06:59:08.821Z,98827.72
2023-05-03T07:02:29.959Z,98824.22
2023-05-03T07:05:37.637Z,98833.72
2023-05-03T07:08:45.514Z,98828.38
2023-05-03T07:11:57.382Z,98823.41
2023-05-03T07:15:06.089Z,98828.59
2023-05-03T07:18:12.982Z,98831.28
2023-05-03T07:21:21.271Z,98836.28
2023-05-03T07:24:28.243Z,98837.94
2023-05-03T07:27:34.094Z,98840.25
2023-05-03T07:30:46.517Z,98830.75
2023-05-03T07:33:52.561Z,98842.09
2023-05-03T07:36:59.525Z,98842.06
2023-05-03T07:40:13.920Z,98848.41
2023-05-03T07:43:26.657Z,98836.09
2023-05-03T07:46:35.702Z,98838.22
2023-05-03T07:49:42.649Z,98848.81
2023-05-03T07:52:51.655Z,98843.97
2023-05-03T07:55:58.671Z,98850.31
2023-05-03T07:59:09.866Z,98840.56
2023-05-03T08:02:20.006Z,98848.28
2023-05-03T08:05:26.406Z,98847.56
2023-05-03T08:08:34.269Z,98838.50
2023-05-03T08:11:44.317Z,98840.81
2023-05-03T08:14:51.211Z,98840.09
2023-05-03T08:18:00.264Z,98842.03
2023-05-03T08:21:18.598Z,98840.44
2023-05-03T08:24:24.556Z,98846.81
2023-05-03T08:27:31.196Z,98842.91
2023-05-03T08:30:37.290Z,98844.28
2023-05-03T08:33:46.752Z,98839.97
2023-05-03T08:36:52.679Z,98845.31
2023-05-03T08:40:00.527Z,98854.03
2023-05-03T08:43:14.903Z,98853.84
2023-05-03T08:46:22.154Z,98866.84
2023-05-03T08:49:36.654Z,98866.19
2023-05-03T08:52:45.937Z,98862.09
2023-05-03T08:55:51.773Z,98861.94
2023-05-03T08:59:01.736Z,98876.75
2023-05-03T09:02:11.642Z,98874.72
2023-05-03T09:05:41.859Z,98874.09
2023-05-03T09:08:47.901Z,98873.13
2023-05-03T09:11:54.727Z,98882.59
2023-05-03T09:15:01.289Z,98879.25
2023-05-03T09:18:19.723Z,98883.38
2023-05-03T09:21:29.005Z,98883.63
2023-05-03T09:24:38.105Z,98875.50
2023-05-03T09:27:46.138Z,98882.16
2023-05-03T09:31:07.783Z,98883.50
2023-05-03T09:34:26.146Z,98888.28
2023-05-03T09:37:42.171Z,98889.31
2023-05-03T09:40:51.487Z,98897.22
2023-05-03T09:44:03.221Z,98895.38
2023-05-03T09:47:10.670Z,98895.38
2023-05-03T09:50:17.784Z,98895.22
2023-05-03T09:53:32.781Z,98902.25
2023-05-03T09:56:41.243Z,98899.72
2023-05-03T09:59:51.038Z,98897.25
2023-05-03T10:03:02.607Z,98892.53
2023-05-03T10:06:22.208Z,98890.44
2023-05-03T10:09:40.207Z,98888.25
2023-05-03T10:12:49.091Z,98888.81
2023-05-03T10:16:06.806Z,98895.38
2023-05-03T10:19:20.811Z,98894.31
2023-05-03T10:22:27.702Z,98889.94
2023-05-03T10:25:40.118Z,98885.72
2023-05-03T10:28:47.121Z,98877.38
2023-05-03T10:31:56.598Z,98886.44
2023-05-03T10:35:16.856Z,98888.13
2023-05-03T10:38:28.937Z,98883.50
2023-05-03T10:41:39.632Z,98883.69
2023-05-03T10:44:55.701Z,98890.16
2023-05-03T10:48:24.488Z,98880.00
2023-05-03T10:51:39.154Z,98886.47
2023-05-03T10:54:46.488Z,98887.19
2023-05-03T10:57:59.357Z,98879.28
2023-05-03T11:01:09.246Z,98882.88
2023-05-03T11:04:27.630Z,98889.44
2023-05-03T11:07:35.518Z,98885.41
2023-05-03T11:10:41.509Z,98879.06
2023-05-03T11:13:53.393Z,98886.94
2023-05-03T11:16:59.876Z,98881.84
2023-05-03T11:20:10.210Z,98887.13
2023-05-03T11:23:16.485Z,98889.09
2023-05-03T11:26:26.677Z,98892.59
2023-05-03T11:29:35.333Z,98885.28
2023-05-03T11:32:42.886Z,98892.16
2023-05-03T11:35:48.825Z,98887.50
2023-05-03T11:38:55.574Z,98889.09
2023-05-03T11:42:07.012Z,98881.88
2023-05-03T11:45:16.892Z,98879.94
2023-05-03T11:48:23.589Z,98879.38
2023-05-03T11:51:30.579Z,98877.03
2023-05-03T11:54:36.705Z,98870.19
2023-05-03T11:57:44.659Z,98881.00
2023-05-03T12:00:55.546Z,98876.97
2023-05-03T12:04:05.824Z,98867.13
2023-05-03T12:07:16.860Z,98870.31
2023-05-03T12:10:35.539Z,98876.19
2023-05-03T12:13:44.328Z,98879.03
2023-05-03T12:16:56.950Z,98860.72
2023-05-03T12:23:29.901Z,98872.03
2023-05-03T12:26:37.880Z,98876.75
2023-05-03T12:29:46.936Z,98871.69
2023-05-03T12:32:58.450Z,98859.09
2023-05-03T12:36:09.225Z,98858.03
2023-05-03T12:39:16.501Z,98855.50
2023-05-03T12:42:23.786Z,98870.81
2023-05-03T12:45:34.490Z,98862.03
2023-05-03T12:48:46.605Z,98864.19
2023-05-03T12:52:11.352Z,98858.91
2023-05-03T12:55:24.531Z,98863.66
2023-05-03T12:58:57.901Z,98865.00
2023-05-03T13:05:33.069Z,98855.31
2023-05-03T13:08:48.173Z,98855.28
2023-05-03T13:11:55.433Z,98853.34
2023-05-03T13:15:04.589Z,98845.44
2023-05-03T13:18:11.298Z,98842.41
2023-05-03T13:21:20.849Z,98848.69
2023-05-03T13:24:26.868Z,98841.94
2023-05-03T13:27:34.149Z,98843.50
2023-05-03T13:30:40.093Z,98841.84
2023-05-03T13:33:46.918Z,98840.44
2023-05-03T13:36:55.627Z,98840.59
2023-05-03T13:40:02.896Z,98830.41
2023-05-03T13:43:09.106Z,98831.81
2023-05-03T13:46:16.507Z,98828.31
2023-05-03T13:49:22.711Z,98835.25
2023-05-03T13:52:34.125Z,98834.81
2023-05-03T13:55:44.090Z,98831.00
2023-05-03T13:58:50.821Z,98825.66
2023-05-03T14:01:56.883Z,98828.09
2023-05-03T14:05:05.899Z,98824.47
2023-05-03T14:08:14.670Z,98810.41
2023-05-03T14:11:23.012Z,98810.03
2023-05-03T14:14:30.597Z,98814.59
2023-05-03T14:17:37.693Z,98817.97
2023-05-03T14:20:43.679Z,98819.53
2023-05-03T14:23:55.788Z,98812.22
2023-05-03T14:27:03.990Z,98817.31
2023-05-03T14:30:12.490Z,98816.66
2023-05-03T14:33:18.854Z,98816.94
2023-05-03T14:36:27.431Z,98813.59
2023-05-03T14:39:35.937Z,98810.97
2023-05-03T14:42:42.769Z,98819.16
2023-05-03T14:45:48.764Z,98820.19
2023-05-03T14:49:11.517Z,98824.38
2023-05-03T14:52:17.961Z,98823.91
2023-05-03T14:55:28.706Z,98823.72
2023-05-03T14:58:34.748Z,98827.66
2023-05-03T15:01:41.597Z,98825.34
2023-05-03T15:04:48.764Z,98821.78
2023-05-03T15:07:55.698Z,98812.28
2023-05-03T15:11:04.553Z,98824.25
2023-05-03T15:14:16.683Z,98829.31
2023-05-03T15:17:31.082Z,98825.47
2023-05-03T15:20:43.304Z,98824.03
2023-05-03T15:23:52.053Z,98823.88
2023-05-03T15:27:06.471Z,98822.91
2023-05-03T15:30:20.380Z,98834.69
2023-05-03T15:33:27.160Z,98827.19
2023-05-03T15:36:35.393Z,98830.94
2023-05-03T15:39:42.461Z,98827.00
2023-05-03T15:42:52.206Z,98828.97
2023-05-03T15:46:00.735Z,98827.66
2023-05-03T15:49:17.999Z,98819.31
2023-05-03T15:52:25.664Z,98825.69
2023-05-03T15:55:31.890Z,98822.34
2023-05-03T15:58:41.533Z,98824.41
2023-05-03T16:01:48.818Z,98822.16
2023-05-03T16:04:56.006Z,98825.84
2023-05-03T16:08:08.513Z,98820.06
2023-05-03T16:11:15.713Z,98828.69
2023-05-03T16:14:25.191Z,98819.78
2023-05-03T16:17:32.003Z,98813.59
2023-05-03T16:20:38.152Z,98820.72
2023-05-03T16:23:52.115Z,98813.72
2023-05-03T16:26:58.180Z,98822.59
2023-05-03T16:30:15.478Z,98813.53
2023-05-03T16:33:24.590Z,98817.38
2023-05-03T16:36:32.998Z,98818.03
2023-05-03T16:39:39.258Z,98808.41
2023-05-03T16:42:46.035Z,98817.00
2023-05-03T16:46:02.897Z,98816.72
2023-05-03T16:49:29.108Z,98814.81
2023-05-03T16:52:41.638Z,98810.44
2023-05-03T16:55:48.485Z,98810.84
2023-05-03T16:58:56.756Z,98813.41
2023-05-03T17:02:11.997Z,98820.91
2023-05-03T17:05:26.537Z,98812.22
2023-05-03T17:08:33.461Z,98814.91
2023-05-03T17:11:39.809Z,98812.47
2023-05-03T17:14:46.502Z,98819.47
2023-05-03T17:17:55.210Z,98818.81
2023-05-03T17:21:05.117Z,98818.16
2023-05-03T17:24:11.810Z,98829.28
2023-05-03T17:27:18.914Z,98826.56
2023-05-03T17:30:28.588Z,98827.47
2023-05-03T17:33:38.793Z,98831.78
2023-05-03T17:36:45.691Z,98834.28
2023-05-03T17:39:52.380Z,98838.78
2023-05-03T17:42:58.378Z,98836.22
2023-05-03T17:46:16.068Z,98840.09
2023-05-03T17:49:24.686Z,98835.47
2023-05-03T17:52:31.575Z,98843.81
2023-05-03T17:55:39.477Z,98825.03
2023-05-03T17:58:47.166Z,98841.56
2023-05-03T18:01:53.185Z,98846.66
2023-05-03T18:05:03.164Z,98850.47
2023-05-03T18:08:09.839Z,98847.25
2023-05-03T18:11:16.922Z,98849.34
2023-05-03T18:14:30.008Z,98844.91
2023-05-03T18:17:39.576Z,98852.16
2023-05-03T18:20:48.262Z,98845.03
2023-05-03T18:23:57.201Z,98849.84
2023-05-03T18:27:04.222Z,98853.69
2023-05-03T18:30:17.409Z,98858.69
2023-05-03T18:33:23.369Z,98858.91
2023-05-03T18:36:32.789Z,98864.44
2023-05-03T18:39:39.780Z,98857.41
2023-05-03T18:42:57.875Z,98863.91
2023-05-03T18:46:05.168Z,98871.41
2023-05-03T18:49:13.067Z,98864.72
2023-05-03T18:52:23.053Z,98866.38
2023-05-03T18:55:29.835Z,98872.84
2023-05-03T18:58:36.586Z,98876.34
2023-05-03T19:01:43.368Z,98875.25
2023-05-03T19:04:49.379Z,98870.47
2023-05-03T19:07:58.838Z,98869.41
2023-05-03T19:11:11.368Z,98872.22
2023-05-03T19:14:18.146Z,98880.56
2023-05-03T19:17:24.086Z,98871.06
2023-05-03T19:20:30.911Z,98874.19
2023-05-03T19:23:39.557Z,98879.09
2023-05-03T19:26:46.413Z,98877.94
2023-05-03T19:29:52.620Z,98872.25
2023-05-03T19:32:59.921Z,98871.16
2023-05-03T19:36:07.020Z,98865.94
2023-05-03T19:39:19.586Z,98871.13
2023-05-03T19:42:26.406Z,98860.75
2023-05-03T19:45:33.276Z,98864.56
2023-05-03T19:48:39.176Z,98869.56
2023-05-03T19:51:45.981Z,98871.22
2023-05-03T19:54:54.552Z,98876.44
2023-05-03T19:58:01.316Z,98874.41
2023-05-03T20:01:07.551Z,98877.91
2023-05-03T20:04:14.453Z,98876.59
2023-05-03T20:07:20.366Z,98862.91
2023-05-03T20:10:35.788Z,98860.44
2023-05-03T20:13:42.003Z,98862.81
2023-05-03T20:16:49.151Z,98862.00
2023-05-03T20:19:56.047Z,98871.19
2023-05-03T20:23:03.046Z,98863.75
2023-05-03T20:26:11.614Z,98868.84
2023-05-03T20:29:18.399Z,98862.56
2023-05-03T20:32:24.467Z,98864.69
2023-05-03T20:35:31.185Z,98866.19
2023-05-03T20:38:37.340Z,98866.97
2023-05-03T20:41:46.845Z,98869.09
2023-05-03T20:44:55.507Z,98858.47
2023-05-03T20:48:02.212Z,98864.78
2023-05-03T20:51:11.763Z,98864.59
2023-05-03T20:54:18.591Z,98867.44
2023-05-03T20:57:27.242Z,98861.28
2023-05-03T21:00:34.311Z,98858.00
2023-05-03T21:03:40.257Z,98866.50
2023-05-03T21:06:47.199Z,98866.28
2023-05-03T21:09:53.057Z,98866.16
2023-05-03T21:13:03.970Z,98861.03
2023-05-03T21:16:10.708Z,98872.13
2023-05-03T21:19:17.501Z,98866.28
2023-05-03T21:22:23.804Z,98863.00
2023-05-03T21:25:30.691Z,98866.13
2023-05-03T21:28:39.334Z,98863.59
2023-05-03T21:31:46.181Z,98864.81
2023-05-03T21:34:52.613Z,98865.28
2023-05-03T21:37:59.446Z,98867.81
2023-05-03T21:41:07.440Z,98858.47
2023-05-03T21:44:17.003Z,98861.13
2023-05-03T21:47:23.537Z,98863.25
2023-05-03T21:50:30.311Z,98855.88
2023-05-03T21:53:36.179Z,98858.84
2023-05-03T21:56:42.942Z,98859.66
2023-05-03T21:59:54.176Z,98858.28
2023-05-03T22:03:01.123Z,98858.44
2023-05-03T22:06:07.608Z,98862.78
2023-05-03T22:09:14.515Z,98858.59
2023-05-03T22:12:24.192Z,98856.13
2023-05-03T22:15:34.994Z,98855.41
2023-05-03T22:18:41.260Z,98860.19
2023-05-03T22:21:48.005Z,98863.50
2023-05-03T22:24:53.852Z,98860.31
2023-05-03T22:28:01.143Z,98858.25
2023-05-03T22:31:09.745Z,98861.94
2023-05-03T22:34:16.616Z,98862.47
2023-05-03T22:37:22.513Z,98862.38
2023-05-03T22:40:29.365Z,98866.72
2023-05-03T22:43:38.002Z,98858.78
2023-05-03T22:46:47.387Z,98859.50
2023-05-03T22:49:53.316Z,98863.09
2023-05-03T22:53:00.195Z,98860.44
2023-05-03T22:56:07.428Z,98854.88
2023-05-03T22:59:16.052Z,98852.09
2023-05-03T23:02:26.921Z,98852.63
2023-05-03T23:05:33.731Z,98849.31
2023-05-03T23:08:39.618Z,98846.78
2023-05-03T23:11:46.418Z,98846.25
2023-05-03T23:14:52.444Z,98850.97
2023-05-03T23:18:02.209Z,98845.81
2023-05-03T23:21:08.289Z,98845.69
2023-05-03T23:24:15.222Z,98846.53
2023-05-03T23:27:21.169Z,98838.03
2023-05-03T23:30:28.475Z,98840.69
2023-05-03T23:33:37.565Z,98838.47
2023-05-03T23:36:44.349Z,98834.69
2023-05-03T23:39:50.295Z,98830.09
2023-05-03T23:42:57.148Z,98830.94
2023-05-03T23:46:03.152Z,98833.56
2023-05-03T23:49:14.419Z,98841.78
2023-05-03T23:52:21.110Z,98834.81
2023-05-03T23:55:27.896Z,98837.75
2023-05-03T23:58:33.806Z,98820.47
